sensor_id;sensor_type;location;lat;lon;timestamp;pressure;altitude;pressure_sealevel;temperature;humidity
49122;BME280;35529;44.342;25.944;2023-04-26T00:02:26;99529.13;;;9.79;100.00
49122;BME280;35529;44.342;25.944;2023-04-26T00:04:55;99524.66;;;9.79;100.00
49122;BME280;35529;44.342;25.944;2023-04-26T00:07:26;99523.81;;;9.79;100.00
49122;BME280;35529;44.342;25.944;2023-04-26T00:09:53;99529.13;;;9.79;100.00
49122;BME280;35529;44.342;25.944;2023-04-26T00:12:19;99522.41;;;9.76;100.00
49122;BME280;35529;44.342;25.944;2023-04-26T00:14:48;99523.66;;;9.73;100.00
49122;BME280;35529;44.342;25.944;2023-04-26T00:17:32;99517.16;;;9.69;100.00
49122;BME280;35529;44.342;25.944;2023-04-26T00:20:04;99518.59;;;9.65;100.00
49122;BME280;35529;44.342;25.944;2023-04-26T00:22:36;99521.91;;;9.61;100.00
49122;BME280;35529;44.342;25.944;2023-04-26T00:25:07;99516.44;;;9.55;100.00
49122;BME280;35529;44.342;25.944;2023-04-26T00:27:37;99520.09;;;9.54;100.00
49122;BME280;35529;44.342;25.944;2023-04-26T00:30:06;99520.31;;;9.53;100.00
49122;BME280;35529;44.342;25.944;2023-04-26T00:32:32;99517.06;;;9.51;100.00
49122;BME280;35529;44.342;25.944;2023-04-26T00:35:04;99519.13;;;9.49;100.00
49122;BME280;35529;44.342;25.944;2023-04-26T00:37:32;99523.81;;;9.47;100.00
49122;BME280;35529;44.342;25.944;2023-04-26T00:40:01;99519.97;;;9.43;100.00
49122;BME280;35529;44.342;25.944;2023-04-26T00:42:37;99520.41;;;9.39;100.00
49122;BME280;35529;44.342;25.944;2023-04-26T00:45:04;99520.41;;;9.39;100.00
49122;BME280;35529;44.342;25.944;2023-04-26T00:47:31;99523.25;;;9.38;100.00
49122;BME280;35529;44.342;25.944;2023-04-26T00:49:57;99519.19;;;9.35;100.00
49122;BME280;35529;44.342;25.944;2023-04-26T00:52:29;99519.03;;;9.30;100.00
49122;BME280;35529;44.342;25.944;2023-04-26T00:54:58;99522.91;;;9.28;100.00
49122;BME280;35529;44.342;25.944;2023-04-26T00:57:24;99521.06;;;9.28;100.00
49122;BME280;35529;44.342;25.944;2023-04-26T00:59:53;99519.66;;;9.26;100.00
49122;BME280;35529;44.342;25.944;2023-04-26T01:02:22;99513.97;;;9.22;100.00
49122;BME280;35529;44.342;25.944;2023-04-26T01:04:50;99513.34;;;9.20;100.00
49122;BME280;35529;44.342;25.944;2023-04-26T01:07:16;99510.91;;;9.18;100.00
49122;BME280;35529;44.342;25.944;2023-04-26T01:09:47;99506.47;;;9.19;100.00
49122;BME280;35529;44.342;25.944;2023-04-26T01:12:16;99513.16;;;9.15;100.00
49122;BME280;35529;44.342;25.944;2023-04-26T01:14:42;99513.59;;;9.12;100.00
49122;BME280;35529;44.342;25.944;2023-04-26T01:17:09;99518.09;;;9.11;100.00
49122;BME280;35529;44.342;25.944;2023-04-26T01:19:45;99526.03;;;9.11;100.00
49122;BME280;35529;44.342;25.944;2023-04-26T01:22:14;99520.34;;;9.08;100.00
49122;BME280;35529;44.342;25.944;2023-04-26T01:24:47;99515.84;;;9.08;100.00
49122;BME280;35529;44.342;25.944;2023-04-26T01:27:17;99522.19;;;9.07;100.00
49122;BME280;35529;44.342;25.944;2023-04-26T01:29:48;99512.63;;;9.06;100.00
49122;BME280;35529;44.342;25.944;2023-04-26T01:32:14;99520.16;;;9.02;100.00
49122;BME280;35529;44.342;25.944;2023-04-26T01:34:45;99513.84;;;9.03;100.00
49122;BME280;35529;44.342;25.944;2023-04-26T01:37:13;99511.63;;;9.00;100.00
49122;BME280;35529;44.342;25.944;2023-04-26T01:39:40;99508.97;;;9.00;100.00
49122;BME280;35529;44.342;25.944;2023-04-26T01:42:06;99503.06;;;8.98;100.00
49122;BME280;35529;44.342;25.944;2023-04-26T01:44:35;99505.72;;;8.98;100.00
49122;BME280;35529;44.342;25.944;2023-04-26T01:47:08;99501.88;;;8.94;100.00
49122;BME280;35529;44.342;25.944;2023-04-26T01:49:41;99498.22;;;8.88;100.00
49122;BME280;35529;44.342;25.944;2023-04-26T01:52:19;99497.03;;;8.84;100.00
49122;BME280;35529;44.342;25.944;2023-04-26T01:54:49;99498.84;;;8.84;100.00
49122;BME280;35529;44.342;25.944;2023-04-26T01:57:17;99499.06;;;8.82;100.00
49122;BME280;35529;44.342;25.944;2023-04-26T01:59:49;99498.47;;;8.80;100.00
49122;BME280;35529;44.342;25.944;2023-04-26T02:02:18;99496.63;;;8.81;100.00
49122;BME280;35529;44.342;25.944;2023-04-26T02:04:44;99494.19;;;8.79;100.00
49122;BME280;35529;44.342;25.944;2023-04-26T02:07:13;99490.53;;;8.80;100.00
49122;BME280;35529;44.342;25.944;2023-04-26T02:09:47;99490.75;;;8.79;100.00
49122;BME280;35529;44.342;25.944;2023-04-26T02:12:16;99486.47;;;8.78;100.00
49122;BME280;35529;44.342;25.944;2023-04-26T02:14:45;99484.81;;;8.77;100.00
49122;BME280;35529;44.342;25.944;2023-04-26T02:17:14;99484.03;;;8.76;100.00
49122;BME280;35529;44.342;25.944;2023-04-26T02:19:46;99481.56;;;8.75;100.00
49122;BME280;35529;44.342;25.944;2023-04-26T02:22:12;99486.84;;;8.75;100.00
49122;BME280;35529;44.342;25.944;2023-04-26T02:24:38;99485.25;;;8.74;100.00
49122;BME280;35529;44.342;25.944;2023-04-26T02:27:09;99483.63;;;8.72;100.00
49122;BME280;35529;44.342;25.944;2023-04-26T02:29:38;99484.03;;;8.69;100.00
49122;BME280;35529;44.342;25.944;2023-04-26T02:32:07;99478.78;;;8.63;100.00
49122;BME280;35529;44.342;25.944;2023-04-26T02:34:33;99474.72;;;8.60;100.00
49122;BME280;35529;44.342;25.944;2023-04-26T02:37:04;99473.06;;;8.59;100.00
49122;BME280;35529;44.342;25.944;2023-04-26T02:39:30;99474.72;;;8.60;100.00
49122;BME280;35529;44.342;25.944;2023-04-26T02:41:57;99475.94;;;8.58;100.00
49122;BME280;35529;44.342;25.944;2023-04-26T02:44:29;99468.22;;;8.56;100.00
49122;BME280;35529;44.342;25.944;2023-04-26T02:47:01;99470.84;;;8.56;100.00
49122;BME280;35529;44.342;25.944;2023-04-26T02:49:30;99475.09;;;8.57;100.00
49122;BME280;35529;44.342;25.944;2023-04-26T02:51:58;99476.94;;;8.57;100.00
49122;BME280;35529;44.342;25.944;2023-04-26T02:54:27;99481.44;;;8.56;100.00
49122;BME280;35529;44.342;25.944;2023-04-26T02:56:53;99478.78;;;8.56;100.00
49122;BME280;35529;44.342;25.944;2023-04-26T02:59:20;99482.03;;;8.58;100.00
49122;BME280;35529;44.342;25.944;2023-04-26T03:01:49;99477.97;;;8.55;100.00
49122;BME280;35529;44.342;25.944;2023-04-26T03:04:18;99475.94;;;8.51;100.00
49122;BME280;35529;44.342;25.944;2023-04-26T03:06:49;99490.19;;;8.50;100.00
49122;BME280;35529;44.342;25.944;2023-04-26T03:09:18;99488.56;;;8.49;100.00
49122;BME280;35529;44.342;25.944;2023-04-26T03:11:47;99490.97;;;8.44;100.00
49122;BME280;35529;44.342;25.944;2023-04-26T03:14:15;99491.41;;;8.41;100.00
49122;BME280;35529;44.342;25.944;2023-04-26T03:16:46;99496.47;;;8.42;100.00
49122;BME280;35529;44.342;25.944;2023-04-26T03:19:18;99498.91;;;8.44;100.00
49122;BME280;35529;44.342;25.944;2023-04-26T03:21:44;99487.13;;;8.39;100.00
49122;BME280;35529;44.342;25.944;2023-04-26T03:24:17;99506.50;;;8.47;100.00
49122;BME280;35529;44.342;25.944;2023-04-26T03:26:46;99506.50;;;8.47;100.00
49122;BME280;35529;44.342;25.944;2023-04-26T03:29:13;99499.56;;;8.46;100.00
49122;BME280;35529;44.342;25.944;2023-04-26T03:31:41;99512.56;;;8.47;100.00
49122;BME280;35529;44.342;25.944;2023-04-26T03:34:07;99507.91;;;8.49;100.00
49122;BME280;35529;44.342;25.944;2023-04-26T03:36:36;99510.13;;;8.52;100.00
49122;BME280;35529;44.342;25.944;2023-04-26T03:39:02;99508.28;;;8.53;100.00
49122;BME280;35529;44.342;25.944;2023-04-26T03:41:34;99511.75;;;8.60;100.00
49122;BME280;35529;44.342;25.944;2023-04-26T03:44:06;99515.59;;;8.64;100.00
49122;BME280;35529;44.342;25.944;2023-04-26T03:46:37;99519.88;;;8.72;100.00
49122;BME280;35529;44.342;25.944;2023-04-26T03:49:08;99518.59;;;8.75;100.00
49122;BME280;35529;44.342;25.944;2023-04-26T03:51:34;99513.72;;;8.78;100.00
49122;BME280;35529;44.342;25.944;2023-04-26T03:54:01;99523.88;;;8.81;100.00
49122;BME280;35529;44.342;25.944;2023-04-26T03:56:27;99521.84;;;8.83;100.00
49122;BME280;35529;44.342;25.944;2023-04-26T03:58:53;99526.13;;;8.91;100.00
49122;BME280;35529;44.342;25.944;2023-04-26T04:01:24;99528.31;;;9.01;100.00
49122;BME280;35529;44.342;25.944;2023-04-26T04:03:50;99532.38;;;9.03;100.00
49122;BME280;35529;44.342;25.944;2023-04-26T04:06:19;99534.38;;;9.08;100.00
49122;BME280;35529;44.342;25.944;2023-04-26T04:08:46;99535.22;;;9.09;100.00
49122;BME280;35529;44.342;25.944;2023-04-26T04:11:15;99537.22;;;9.13;100.00
49122;BME280;35529;44.342;25.944;2023-04-26T04:13:49;99538.03;;;9.20;100.00
49122;BME280;35529;44.342;25.944;2023-04-26T04:16:17;99536.75;;;9.30;100.00
49122;BME280;35529;44.342;25.944;2023-04-26T04:18:43;99547.91;;;9.38;100.00
49122;BME280;35529;44.342;25.944;2023-04-26T04:21:14;99557.06;;;9.43;100.00
49122;BME280;35529;44.342;25.944;2023-04-26T04:23:43;99556.47;;;9.41;100.00
49122;BME280;35529;44.342;25.944;2023-04-26T04:26:12;99563.38;;;9.42;100.00
49122;BME280;35529;44.342;25.944;2023-04-26T04:28:45;99562.31;;;9.49;100.00
49122;BME280;35529;44.342;25.944;2023-04-26T04:31:14;99564.41;;;9.47;100.00
49122;BME280;35529;44.342;25.944;2023-04-26T04:33:43;99567.84;;;9.48;100.00
49122;BME280;35529;44.342;25.944;2023-04-26T04:36:12;99566.81;;;9.49;100.00
49122;BME280;35529;44.342;25.944;2023-04-26T04:38:47;99563.34;;;9.48;100.00
49122;BME280;35529;44.342;25.944;2023-04-26T04:41:18;99563.34;;;9.48;100.00
49122;BME280;35529;44.342;25.944;2023-04-26T04:43:50;99562.72;;;9.53;100.00
49122;BME280;35529;44.342;25.944;2023-04-26T04:46:18;99580.63;;;9.57;100.00
49122;BME280;35529;44.342;25.944;2023-04-26T04:48:44;99575.47;;;9.69;100.00
49122;BME280;35529;44.342;25.944;2023-04-26T04:51:10;99575.59;;;9.81;100.00
49122;BME280;35529;44.342;25.944;2023-04-26T04:53:41;99580.31;;;9.79;100.00
49122;BME280;35529;44.342;25.944;2023-04-26T04:56:10;99573.19;;;9.80;100.00
49122;BME280;35529;44.342;25.944;2023-04-26T04:58:40;99581.09;;;9.86;100.00
49122;BME280;35529;44.342;25.944;2023-04-26T05:01:06;99586.88;;;10.02;100.00
49122;BME280;35529;44.342;25.944;2023-04-26T05:03:35;99588.06;;;10.13;100.00
49122;BME280;35529;44.342;25.944;2023-04-26T05:06:04;99594.50;;;10.23;100.00
49122;BME280;35529;44.342;25.944;2023-04-26T05:08:35;99592.38;;;10.32;100.00
49122;BME280;35529;44.342;25.944;2023-04-26T05:11:01;99579.09;;;10.39;100.00
49122;BME280;35529;44.342;25.944;2023-04-26T05:13:30;99580.06;;;10.45;100.00
49122;BME280;35529;44.342;25.944;2023-04-26T05:15:59;99593.50;;;10.50;100.00
49122;BME280;35529;44.342;25.944;2023-04-26T05:18:31;99584.66;;;10.56;100.00
49122;BME280;35529;44.342;25.944;2023-04-26T05:21:02;99577.28;;;10.58;100.00
49122;BME280;35529;44.342;25.944;2023-04-26T05:23:31;99580.53;;;10.60;100.00
49122;BME280;35529;44.342;25.944;2023-04-26T05:26:02;99577.50;;;10.56;100.00
49122;BME280;35529;44.342;25.944;2023-04-26T05:28:33;99571.03;;;10.71;100.00
49122;BME280;35529;44.342;25.944;2023-04-26T05:31:06;99570.53;;;10.81;100.00
49122;BME280;35529;44.342;25.944;2023-04-26T05:33:32;99582.88;;;10.94;100.00
49122;BME280;35529;44.342;25.944;2023-04-26T05:36:03;99579.47;;;11.05;100.00
49122;BME280;35529;44.342;25.944;2023-04-26T05:38:34;99588.75;;;11.14;100.00
49122;BME280;35529;44.342;25.944;2023-04-26T05:41:03;99583.03;;;11.17;100.00
49122;BME280;35529;44.342;25.944;2023-04-26T05:43:32;99582.72;;;11.26;100.00
49122;BME280;35529;44.342;25.944;2023-04-26T05:45:58;99579.16;;;11.32;100.00
49122;BME280;35529;44.342;25.944;2023-04-26T05:48:27;99581.31;;;11.42;100.00
49122;BME280;35529;44.342;25.944;2023-04-26T05:50:54;99574.81;;;11.37;100.00
49122;BME280;35529;44.342;25.944;2023-04-26T05:53:26;99573.09;;;11.43;100.00
49122;BME280;35529;44.342;25.944;2023-04-26T05:55:52;99560.53;;;11.50;100.00
49122;BME280;35529;44.342;25.944;2023-04-26T05:58:21;99554.78;;;11.53;100.00
49122;BME280;35529;44.342;25.944;2023-04-26T06:00:47;99553.50;;;11.56;100.00
49122;BME280;35529;44.342;25.944;2023-04-26T06:03:13;99554.22;;;11.63;100.00
49122;BME280;35529;44.342;25.944;2023-04-26T06:05:39;99549.97;;;11.74;100.00
49122;BME280;35529;44.342;25.944;2023-04-26T06:08:08;99541.19;;;11.85;100.00
49122;BME280;35529;44.342;25.944;2023-04-26T06:10:37;99539.00;;;11.82;100.00
49122;BME280;35529;44.342;25.944;2023-04-26T06:13:06;99538.78;;;11.84;100.00
49122;BME280;35529;44.342;25.944;2023-04-26T06:15:32;99539.94;;;11.88;100.00
49122;BME280;35529;44.342;25.944;2023-04-26T06:18:04;99540.22;;;11.98;100.00
49122;BME280;35529;44.342;25.944;2023-04-26T06:20:36;99547.63;;;12.08;100.00
49122;BME280;35529;44.342;25.944;2023-04-26T06:23:02;99536.88;;;12.15;100.00
49122;BME280;35529;44.342;25.944;2023-04-26T06:25:30;99538.75;;;12.26;100.00
49122;BME280;35529;44.342;25.944;2023-04-26T06:28:01;99539.22;;;12.35;100.00
49122;BME280;35529;44.342;25.944;2023-04-26T06:30:28;99553.00;;;12.44;100.00
49122;BME280;35529;44.342;25.944;2023-04-26T06:32:57;99545.13;;;12.49;100.00
49122;BME280;35529;44.342;25.944;2023-04-26T06:35:29;99551.94;;;12.68;100.00
49122;BME280;35529;44.342;25.944;2023-04-26T06:37:59;99555.06;;;12.89;100.00
49122;BME280;35529;44.342;25.944;2023-04-26T06:40:25;99557.47;;;13.02;100.00
49122;BME280;35529;44.342;25.944;2023-04-26T06:43:03;99560.09;;;13.14;100.00
49122;BME280;35529;44.342;25.944;2023-04-26T06:45:31;99559.25;;;13.25;100.00
49122;BME280;35529;44.342;25.944;2023-04-26T06:48:00;99550.06;;;13.33;100.00
49122;BME280;35529;44.342;25.944;2023-04-26T06:50:29;99547.97;;;13.35;100.00
49122;BME280;35529;44.342;25.944;2023-04-26T06:52:57;99548.69;;;13.43;100.00
49122;BME280;35529;44.342;25.944;2023-04-26T06:55:26;99546.34;;;13.46;100.00
49122;BME280;35529;44.342;25.944;2023-04-26T06:57:53;99548.41;;;13.56;100.00
49122;BME280;35529;44.342;25.944;2023-04-26T07:00:21;99553.44;;;13.69;100.00
49122;BME280;35529;44.342;25.944;2023-04-26T07:02:48;99552.63;;;13.86;100.00
49122;BME280;35529;44.342;25.944;2023-04-26T07:05:17;99562.22;;;13.99;100.00
49122;BME280;35529;44.342;25.944;2023-04-26T07:07:43;99554.59;;;14.07;100.00
49122;BME280;35529;44.342;25.944;2023-04-26T07:10:17;99563.56;;;14.18;100.00
49122;BME280;35529;44.342;25.944;2023-04-26T07:12:51;99558.06;;;14.25;100.00
49122;BME280;35529;44.342;25.944;2023-04-26T07:15:23;99560.19;;;14.23;100.00
49122;BME280;35529;44.342;25.944;2023-04-26T07:17:52;99557.69;;;14.33;100.00
49122;BME280;35529;44.342;25.944;2023-04-26T07:20:21;99558.66;;;14.44;100.00
49122;BME280;35529;44.342;25.944;2023-04-26T07:22:49;99557.00;;;14.60;100.00
49122;BME280;35529;44.342;25.944;2023-04-26T07:25:16;99559.28;;;14.68;100.00
49122;BME280;35529;44.342;25.944;2023-04-26T07:27:44;99561.03;;;14.80;100.00
49122;BME280;35529;44.342;25.944;2023-04-26T07:30:11;99553.41;;;14.88;100.00
49122;BME280;35529;44.342;25.944;2023-04-26T07:32:44;99558.88;;;14.99;100.00
49122;BME280;35529;44.342;25.944;2023-04-26T07:35:15;99562.06;;;15.18;100.00
49122;BME280;35529;44.342;25.944;2023-04-26T07:37:42;99548.84;;;15.33;100.00
49122;BME280;35529;44.342;25.944;2023-04-26T07:40:12;99550.53;;;15.39;100.00
49122;BME280;35529;44.342;25.944;2023-04-26T07:42:44;99548.13;;;15.43;100.00
49122;BME280;35529;44.342;25.944;2023-04-26T07:45:13;99555.75;;;15.56;100.00
49122;BME280;35529;44.342;25.944;2023-04-26T07:47:42;99556.94;;;15.66;100.00
49122;BME280;35529;44.342;25.944;2023-04-26T07:50:11;99555.88;;;15.67;100.00
49122;BME280;35529;44.342;25.944;2023-04-26T07:52:40;99558.09;;;15.75;100.00
49122;BME280;35529;44.342;25.944;2023-04-26T07:55:08;99559.00;;;15.81;100.00
49122;BME280;35529;44.342;25.944;2023-04-26T07:57:37;99559.06;;;15.91;100.00
49122;BME280;35529;44.342;25.944;2023-04-26T08:00:09;99557.28;;;15.97;100.00
49122;BME280;35529;44.342;25.944;2023-04-26T08:02:38;99559.16;;;16.01;100.00
49122;BME280;35529;44.342;25.944;2023-04-26T08:05:05;99554.91;;;16.05;100.00
49122;BME280;35529;44.342;25.944;2023-04-26T08:07:34;99554.19;;;16.15;100.00
49122;BME280;35529;44.342;25.944;2023-04-26T08:10:02;99557.72;;;16.21;100.00
49122;BME280;35529;44.342;25.944;2023-04-26T08:12:28;99557.50;;;16.28;100.00
49122;BME280;35529;44.342;25.944;2023-04-26T08:14:58;99545.47;;;16.30;100.00
49122;BME280;35529;44.342;25.944;2023-04-26T08:17:24;99556.25;;;16.40;100.00
49122;BME280;35529;44.342;25.944;2023-04-26T08:19:51;99559.75;;;16.46;100.00
49122;BME280;35529;44.342;25.944;2023-04-26T08:22:22;99557.13;;;16.51;100.00
49122;BME280;35529;44.342;25.944;2023-04-26T08:24:53;99553.16;;;16.59;100.00
49122;BME280;35529;44.342;25.944;2023-04-26T08:27:19;99561.25;;;16.69;100.00
49122;BME280;35529;44.342;25.944;2023-04-26T08:29:53;99559.09;;;16.71;100.00
49122;BME280;35529;44.342;25.944;2023-04-26T08:32:24;99555.94;;;16.80;100.00
49122;BME280;35529;44.342;25.944;2023-04-26T08:34:50;99561.06;;;16.86;100.00
49122;BME280;35529;44.342;25.944;2023-04-26T08:37:16;99557.66;;;16.96;100.00
49122;BME280;35529;44.342;25.944;2023-04-26T08:39:48;99566.19;;;16.88;100.00
49122;BME280;35529;44.342;25.944;2023-04-26T08:42:15;99557.03;;;16.79;100.00
49122;BME280;35529;44.342;25.944;2023-04-26T08:44:44;99563.00;;;16.91;100.00
49122;BME280;35529;44.342;25.944;2023-04-26T08:47:21;99555.53;;;17.03;100.00
49122;BME280;35529;44.342;25.944;2023-04-26T08:49:54;99561.47;;;17.16;100.00
49122;BME280;35529;44.342;25.944;2023-04-26T08:52:27;99557.78;;;17.27;100.00
49122;BME280;35529;44.342;25.944;2023-04-26T08:54:54;99559.13;;;17.30;100.00
49122;BME280;35529;44.342;25.944;2023-04-26T08:57:24;99558.31;;;17.34;100.00
49122;BME280;35529;44.342;25.944;2023-04-26T08:59:56;99556.72;;;17.38;100.00
49122;BME280;35529;44.342;25.944;2023-04-26T09:02:23;99552.72;;;17.41;100.00
49122;BME280;35529;44.342;25.944;2023-04-26T09:04:49;99556.47;;;17.40;100.00
49122;BME280;35529;44.342;25.944;2023-04-26T09:09:51;99565.34;;;17.56;100.00
49122;BME280;35529;44.342;25.944;2023-04-26T09:12:21;99555.75;;;17.75;100.00
49122;BME280;35529;44.342;25.944;2023-04-26T09:14:50;99557.66;;;18.01;100.00
49122;BME280;35529;44.342;25.944;2023-04-26T09:19:50;99566.50;;;18.42;100.00
49122;BME280;35529;44.342;25.944;2023-04-26T09:22:35;99560.06;;;18.43;100.00
49122;BME280;35529;44.342;25.944;2023-04-26T09:25:02;99561.41;;;18.51;100.00
49122;BME280;35529;44.342;25.944;2023-04-26T09:27:35;99558.94;;;18.70;100.00
49122;BME280;35529;44.342;25.944;2023-04-26T09:38:00;99555.38;;;19.51;100.00
49122;BME280;35529;44.342;25.944;2023-04-26T09:40:28;99557.47;;;19.64;100.00
49122;BME280;35529;44.342;25.944;2023-04-26T09:43:01;99564.31;;;19.91;100.00
49122;BME280;35529;44.342;25.944;2023-04-26T09:45:31;99560.97;;;20.04;100.00
49122;BME280;35529;44.342;25.944;2023-04-26T09:48:14;99550.81;;;19.96;100.00
49122;BME280;35529;44.342;25.944;2023-04-26T09:50:42;99558.41;;;19.84;100.00
49122;BME280;35529;44.342;25.944;2023-04-26T09:53:30;99551.44;;;19.83;100.00
49122;BME280;35529;44.342;25.944;2023-04-26T09:56:06;99553.59;;;19.81;100.00
49122;BME280;35529;44.342;25.944;2023-04-26T09:58:35;99557.19;;;19.60;100.00
49122;BME280;35529;44.342;25.944;2023-04-26T10:01:06;99553.94;;;19.19;100.00
49122;BME280;35529;44.342;25.944;2023-04-26T10:03:33;99555.75;;;19.34;100.00
49122;BME280;35529;44.342;25.944;2023-04-26T10:05:59;99560.22;;;19.49;100.00
49122;BME280;35529;44.342;25.944;2023-04-26T10:08:25;99560.19;;;19.54;100.00
49122;BME280;35529;44.342;25.944;2023-04-26T10:10:56;99563.63;;;19.65;100.00
49122;BME280;35529;44.342;25.944;2023-04-26T10:13:25;99545.41;;;19.51;100.00
49122;BME280;35529;44.342;25.944;2023-04-26T10:15:56;99548.00;;;19.67;100.00
49122;BME280;35529;44.342;25.944;2023-04-26T10:18:27;99554.09;;;19.88;100.00
49122;BME280;35529;44.342;25.944;2023-04-26T10:20:57;99545.16;;;19.92;100.00
49122;BME280;35529;44.342;25.944;2023-04-26T10:23:25;99544.84;;;20.29;100.00
49122;BME280;35529;44.342;25.944;2023-04-26T10:25:54;99543.16;;;20.62;100.00
49122;BME280;35529;44.342;25.944;2023-04-26T10:31:20;99540.28;;;21.45;100.00
49122;BME280;35529;44.342;25.944;2023-04-26T10:34:16;99542.59;;;21.90;100.00
49122;BME280;35529;44.342;25.944;2023-04-26T10:36:56;99541.91;;;22.31;100.00
49122;BME280;35529;44.342;25.944;2023-04-26T10:39:27;99544.59;;;22.31;100.00
49122;BME280;35529;44.342;25.944;2023-04-26T10:42:15;99543.22;;;22.34;100.00
49122;BME280;35529;44.342;25.944;2023-04-26T10:44:43;99537.56;;;22.63;100.00
49122;BME280;35529;44.342;25.944;2023-04-26T10:47:25;99542.16;;;22.76;100.00
49122;BME280;35529;44.342;25.944;2023-04-26T10:49:54;99534.66;;;22.59;100.00
49122;BME280;35529;44.342;25.944;2023-04-26T10:52:28;99538.19;;;22.27;100.00
49122;BME280;35529;44.342;25.944;2023-04-26T10:54:59;99534.00;;;21.88;100.00
49122;BME280;35529;44.342;25.944;2023-04-26T11:08:15;99541.44;;;20.76;100.00
49122;BME280;35529;44.342;25.944;2023-04-26T11:10:42;99539.69;;;20.32;100.00
49122;BME280;35529;44.342;25.944;2023-04-26T11:13:13;99543.84;;;20.49;100.00
49122;BME280;35529;44.342;25.944;2023-04-26T11:15:39;99543.16;;;20.62;100.00
49122;BME280;35529;44.342;25.944;2023-04-26T11:18:05;99547.81;;;20.56;100.00
49122;BME280;35529;44.342;25.944;2023-04-26T11:20:34;99539.06;;;20.70;100.00
49122;BME280;35529;44.342;25.944;2023-04-26T11:23:03;99537.78;;;20.86;100.00
49122;BME280;35529;44.342;25.944;2023-04-26T11:25:35;99530.09;;;20.99;100.00
49122;BME280;35529;44.342;25.944;2023-04-26T11:28:03;99532.84;;;20.93;100.00
49122;BME280;35529;44.342;25.944;2023-04-26T11:30:32;99542.19;;;21.01;100.00
49122;BME280;35529;44.342;25.944;2023-04-26T11:32:59;99539.75;;;21.05;100.00
49122;BME280;35529;44.342;25.944;2023-04-26T11:35:25;99538.47;;;20.97;100.00
49122;BME280;35529;44.342;25.944;2023-04-26T11:37:56;99541.56;;;21.09;100.00
49122;BME280;35529;44.342;25.944;2023-04-26T11:40:31;99539.97;;;21.08;100.00
49122;BME280;35529;44.342;25.944;2023-04-26T11:42:58;99535.88;;;21.11;100.00
49122;BME280;35529;44.342;25.944;2023-04-26T11:45:24;99529.84;;;21.19;100.00
49122;BME280;35529;44.342;25.944;2023-04-26T11:47:53;99539.38;;;21.31;100.00
49122;BME280;35529;44.342;25.944;2023-04-26T11:50:23;99539.97;;;21.47;100.00
49122;BME280;35529;44.342;25.944;2023-04-26T11:52:53;99535.91;;;21.68;100.00
49122;BME280;35529;44.342;25.944;2023-04-26T11:55:28;99532.47;;;21.82;100.00
49122;BME280;35529;44.342;25.944;2023-04-26T11:57:56;99539.25;;;22.12;100.00
49122;BME280;35529;44.342;25.944;2023-04-26T12:00:23;99533.19;;;22.34;100.00
49122;BME280;35529;44.342;25.944;2023-04-26T12:03:03;99536.75;;;22.49;100.00
49122;BME280;35529;44.342;25.944;2023-04-26T12:05:29;99536.25;;;22.60;100.00
49122;BME280;35529;44.342;25.944;2023-04-26T12:07:56;99536.66;;;22.54;100.00
49122;BME280;35529;44.342;25.944;2023-04-26T12:10:23;99529.22;;;22.59;100.00
49122;BME280;35529;44.342;25.944;2023-04-26T12:12:50;99532.66;;;22.79;100.00
49122;BME280;35529;44.342;25.944;2023-04-26T12:15:22;99530.94;;;22.55;100.00
49122;BME280;35529;44.342;25.944;2023-04-26T12:17:55;99539.25;;;22.45;100.00
49122;BME280;35529;44.342;25.944;2023-04-26T12:20:28;99542.94;;;22.35;100.00
49122;BME280;35529;44.342;25.944;2023-04-26T12:25:26;99520.72;;;22.94;100.00
49122;BME280;35529;44.342;25.944;2023-04-26T12:27:55;99520.78;;;23.53;100.00
49122;BME280;35529;44.342;25.944;2023-04-26T12:30:27;99516.50;;;23.75;100.00
49122;BME280;35529;44.342;25.944;2023-04-26T12:32:53;99514.50;;;24.12;100.00
49122;BME280;35529;44.342;25.944;2023-04-26T12:35:23;99519.19;;;24.20;100.00
49122;BME280;35529;44.342;25.944;2023-04-26T12:37:51;99518.59;;;24.01;100.00
49122;BME280;35529;44.342;25.944;2023-04-26T12:40:21;99513.09;;;23.69;100.00
49122;BME280;35529;44.342;25.944;2023-04-26T12:42:53;99520.78;;;23.53;100.00
49122;BME280;35529;44.342;25.944;2023-04-26T12:45:21;99525.38;;;23.30;100.00
49122;BME280;35529;44.342;25.944;2023-04-26T12:47:50;99515.09;;;22.90;100.00
49122;BME280;35529;44.342;25.944;2023-04-26T12:50:16;99527.34;;;22.74;100.00
49122;BME280;35529;44.342;25.944;2023-04-26T12:52:48;99524.56;;;22.65;100.00
49122;BME280;35529;44.342;25.944;2023-04-26T12:55:14;99525.13;;;22.62;100.00
49122;BME280;35529;44.342;25.944;2023-04-26T12:57:43;99534.84;;;22.63;100.00
49122;BME280;35529;44.342;25.944;2023-04-26T13:00:11;99537.97;;;22.56;100.00
49122;BME280;35529;44.342;25.944;2023-04-26T13:02:37;99533.63;;;22.41;100.00
49122;BME280;35529;44.342;25.944;2023-04-26T13:05:04;99535.78;;;22.12;100.00
49122;BME280;35529;44.342;25.944;2023-04-26T13:07:35;99549.22;;;21.98;100.00
49122;BME280;35529;44.342;25.944;2023-04-26T13:10:08;99551.16;;;21.40;100.00
49122;BME280;35529;44.342;25.944;2023-04-26T13:12:38;99574.03;;;20.21;100.00
49122;BME280;35529;44.342;25.944;2023-04-26T13:15:09;99586.53;;;19.62;100.00
49122;BME280;35529;44.342;25.944;2023-04-26T13:17:36;99609.94;;;19.12;100.00
49122;BME280;35529;44.342;25.944;2023-04-26T13:20:07;99592.28;;;18.64;100.00
49122;BME280;35529;44.342;25.944;2023-04-26T13:22:34;99604.69;;;18.39;100.00
49122;BME280;35529;44.342;25.944;2023-04-26T13:25:00;99606.28;;;18.25;100.00